Time;durP1;ratioP1;P1;durP2;ratioP2;P2;SDS_P1;SDS_P2;PMS_P1;PMS_P2;Temp;Humidity;BMP_temperature;BMP_pressure;BME280_temperature;BME280_humidity;BME280_pressure;Samples;Min_cycle;Max_cycle;Signal;HPM_P1;HPM_P2
2023/05/25 00:01:37;;;;;;;0.68;0.55;;;23.60;43.20;;;;;;6313852;28;20032;-44
2023/05/25 00:04:40;;;;;;;0.63;0.50;;;23.40;43.00;;;;;;6316267;28;20501;-48
2023/05/25 00:07:43;;;;;;;1.00;0.70;;;23.40;43.00;;;;;;6315090;28;20040;-43
2023/05/25 00:10:45;;;;;;;0.70;0.50;;;23.50;42.90;;;;;;6316125;28;20047;-47
2023/05/25 00:13:46;;;;;;;0.93;0.65;;;23.40;42.80;;;;;;6315646;28;20055;-45
2023/05/25 00:16:48;;;;;;;0.68;0.60;;;23.20;42.80;;;;;;6314151;28;20574;-43
2023/05/25 00:19:50;;;;;;;1.05;0.60;;;23.40;42.80;;;;;;6316486;28;20723;-45
2023/05/25 00:22:54;;;;;;;0.80;0.60;;;23.40;42.70;;;;;;6315361;28;20586;-45
2023/05/25 00:25:56;;;;;;;0.60;0.47;;;23.30;42.70;;;;;;6314739;28;20685;-47
2023/05/25 00:28:59;;;;;;;0.70;0.38;;;23.50;42.80;;;;;;6315468;28;20036;-45
2023/05/25 00:32:00;;;;;;;0.95;0.57;;;23.50;42.70;;;;;;6316104;28;20489;-43
2023/05/25 00:35:02;;;;;;;0.70;0.60;;;23.30;42.60;;;;;;6315031;28;20036;-43
2023/05/25 00:38:04;;;;;;;0.70;0.50;;;23.40;42.60;;;;;;6316318;28;20036;-45
2023/05/25 00:41:06;;;;;;;0.40;0.40;;;23.40;42.60;;;;;;6315240;28;20044;-48
2023/05/25 00:44:09;;;;;;;0.95;0.60;;;23.40;42.60;;;;;;6314754;28;20040;-48
2023/05/25 00:47:11;;;;;;;0.90;0.50;;;23.40;42.50;;;;;;6315417;28;20040;-43
2023/05/25 00:50:16;;;;;;;0.60;0.50;;;23.10;42.30;;;;;;6315301;28;20577;-43
2023/05/25 00:53:17;;;;;;;1.02;0.70;;;23.30;42.50;;;;;;6314802;28;20044;-46
2023/05/25 00:56:23;;;;;;;0.60;0.50;;;23.40;42.50;;;;;;6315022;28;20029;-49
2023/05/25 00:59:34;;;;;;;0.88;0.60;;;23.20;42.30;;;;;;6313434;28;20457;-45
2023/05/25 01:02:39;;;;;;;0.90;0.60;;;22.80;42.10;;;;;;6314155;28;20521;-43
2023/05/25 01:05:44;;;;;;;1.00;0.50;;;23.10;42.30;;;;;;6313471;28;20036;-44
2023/05/25 01:08:51;;;;;;;0.95;0.68;;;23.20;42.30;;;;;;6314283;28;20044;-54
2023/05/25 01:11:55;;;;;;;0.73;0.60;;;23.40;42.50;;;;;;6315205;28;20039;-53
2023/05/25 01:14:59;;;;;;;0.60;0.50;;;23.30;42.40;;;;;;6315113;28;20437;-49
2023/05/25 01:18:01;;;;;;;1.15;0.73;;;23.40;42.50;;;;;;6314446;28;20048;-52
2023/05/25 01:21:12;;;;;;;0.90;0.50;;;23.20;42.50;;;;;;6352639;22;20043;-45
2023/05/25 01:24:21;;;;;;;0.53;0.50;;;23.40;42.50;;;;;;6347050;28;20050;-44
2023/05/25 01:27:31;;;;;;;0.90;0.70;;;23.40;42.50;;;;;;6344277;28;20035;-43
2023/05/25 01:30:33;;;;;;;0.47;0.38;;;23.20;42.50;;;;;;6342440;28;20108;-44
2023/05/25 01:33:38;;;;;;;1.10;0.70;;;23.20;42.50;;;;;;6341891;28;20036;-43
2023/05/25 01:36:40;;;;;;;0.90;0.63;;;23.20;42.50;;;;;;6342166;28;20040;-48
2023/05/25 01:39:42;;;;;;;0.90;0.60;;;23.20;43.10;;;;;;6341649;28;20039;-46
2023/05/25 01:42:44;;;;;;;1.08;0.68;;;23.10;42.50;;;;;;6340394;28;20036;-47
2023/05/25 01:45:46;;;;;;;0.60;0.50;;;23.20;42.60;;;;;;6340926;28;20043;-42
2023/05/25 01:48:53;;;;;;;0.70;0.40;;;23.10;42.50;;;;;;6339955;28;20040;-44
2023/05/25 01:52:03;;;;;;;0.73;0.57;;;23.20;42.60;;;;;;6339737;28;20051;-44
2023/05/25 01:55:09;;;;;;;0.95;0.70;;;23.10;42.50;;;;;;6340877;28;20111;-45
2023/05/25 01:58:15;;;;;;;0.75;0.60;;;22.90;42.40;;;;;;6338430;28;20032;-46
2023/05/25 02:01:18;;;;;;;0.60;0.50;;;23.10;42.60;;;;;;6339544;28;20092;-45
2023/05/25 02:04:21;;;;;;;0.55;0.45;;;22.70;42.40;;;;;;6339499;28;20046;-44
2023/05/25 02:07:23;;;;;;;0.63;0.45;;;23.10;42.70;;;;;;6341003;28;20052;-44
2023/05/25 02:10:26;;;;;;;0.95;0.63;;;23.10;42.70;;;;;;6341133;28;20043;-46
2023/05/25 02:13:27;;;;;;;0.82;0.60;;;22.80;42.60;;;;;;6340253;28;20049;-45
2023/05/25 02:16:31;;;;;;;0.85;0.50;;;23.10;42.70;;;;;;6337922;28;20263;-42
2023/05/25 02:19:37;;;;;;;0.45;0.45;;;23.00;42.70;;;;;;6337913;28;20032;-44
2023/05/25 02:22:39;;;;;;;0.60;0.43;;;23.10;42.80;;;;;;6337498;28;20031;-43
2023/05/25 02:25:41;;;;;;;0.60;0.50;;;23.10;42.80;;;;;;6338586;28;20042;-43
2023/05/25 02:28:43;;;;;;;1.00;0.60;;;23.00;42.80;;;;;;6338223;28;20028;-46
2023/05/25 02:31:44;;;;;;;;;;;23.00;42.90;;;;;;6342543;28;20100;-45
2023/05/25 02:34:46;;;;;;;0.52;0.35;;;23.00;43.10;;;;;;6340510;28;19919;-42
2023/05/25 02:37:50;;;;;;;0.57;0.40;;;22.90;43.60;;;;;;6342848;28;20093;-45
2023/05/25 02:40:52;;;;;;;0.80;0.60;;;23.00;43.00;;;;;;6343639;28;20481;-42
2023/05/25 02:43:55;;;;;;;0.90;0.60;;;23.00;43.10;;;;;;6343327;28;20121;-45
2023/05/25 02:46:57;;;;;;;0.93;0.50;;;22.80;43.00;;;;;;6343399;28;20036;-42
2023/05/25 02:49:58;;;;;;;0.90;0.40;;;22.80;43.30;;;;;;6343636;28;20040;-43
2023/05/25 02:53:00;;;;;;;0.75;0.60;;;22.90;43.20;;;;;;6342838;28;20451;-44
2023/05/25 02:56:03;;;;;;;0.98;0.50;;;23.00;43.20;;;;;;6343562;28;20114;-45
2023/05/25 02:59:07;;;;;;;1.02;0.57;;;23.00;43.30;;;;;;6343395;28;20047;-46
2023/05/25 03:02:09;;;;;;;0.63;0.50;;;23.00;43.40;;;;;;6343184;28;20046;-43
2023/05/25 03:05:10;;;;;;;0.90;0.60;;;23.00;43.40;;;;;;6343125;28;20124;-44
2023/05/25 03:08:13;;;;;;;0.60;0.60;;;23.00;43.40;;;;;;6342907;28;20398;-47
2023/05/25 03:11:15;;;;;;;0.75;0.60;;;23.10;43.60;;;;;;6342121;28;20468;-45
2023/05/25 03:14:17;;;;;;;0.65;0.60;;;22.90;43.60;;;;;;6343078;28;20084;-42
2023/05/25 03:17:29;;;;;;;1.13;0.52;;;22.90;43.60;;;;;;6342600;28;20039;-45
2023/05/25 03:20:34;;;;;;;0.70;0.50;;;23.00;43.60;;;;;;6342569;28;20070;-51
2023/05/25 03:23:37;;;;;;;0.75;0.60;;;22.80;43.20;;;;;;6341608;28;20048;-53
2023/05/25 03:26:42;;;;;;;0.85;0.50;;;22.80;43.70;;;;;;6340880;28;20036;-51
2023/05/25 03:29:43;;;;;;;0.88;0.60;;;22.60;43.60;;;;;;6340555;28;20494;-52
2023/05/25 03:32:45;;;;;;;;;;;22.80;43.80;;;;;;6340487;28;20117;-52
2023/05/25 03:35:46;;;;;;;1.00;0.68;;;22.90;44.00;;;;;;6341492;28;20274;-50
2023/05/25 03:38:51;;;;;;;0.77;0.68;;;22.90;43.90;;;;;;6341647;28;20038;-51
2023/05/25 03:41:54;;;;;;;0.60;0.60;;;22.90;43.90;;;;;;6342197;28;20040;-50
2023/05/25 03:44:55;;;;;;;0.82;0.65;;;22.90;44.00;;;;;;6342174;28;20557;-48
2023/05/25 03:47:58;;;;;;;1.65;0.60;;;22.50;43.90;;;;;;6342191;28;20031;-45
2023/05/25 03:50:59;;;;;;;0.73;0.52;;;22.90;44.40;;;;;;6345860;28;20263;-50
2023/05/25 03:54:02;;;;;;;0.68;0.57;;;22.60;44.10;;;;;;6343173;28;20039;-52
2023/05/25 03:57:05;;;;;;;0.70;0.40;;;22.80;44.20;;;;;;6343325;28;20043;-51
2023/05/25 04:00:08;;;;;;;1.10;0.88;;;22.80;44.30;;;;;;6343615;28;20046;-52
2023/05/25 04:03:19;;;;;;;1.13;0.60;;;22.60;44.10;;;;;;6343301;28;20087;-51
2023/05/25 04:06:24;;;;;;;0.85;0.68;;;22.70;44.20;;;;;;6341997;28;20039;-53
2023/05/25 04:09:26;;;;;;;1.10;0.60;;;22.70;44.20;;;;;;6344404;28;20043;-51
2023/05/25 04:12:28;;;;;;;0.88;0.50;;;22.80;44.40;;;;;;6343362;28;20051;-52
2023/05/25 04:15:29;;;;;;;1.15;0.50;;;22.80;44.50;;;;;;6343258;28;20042;-51
2023/05/25 04:18:37;;;;;;;0.70;0.60;;;22.50;44.30;;;;;;6343362;28;20063;-51
2023/05/25 04:21:41;;;;;;;;;;;22.60;44.40;;;;;;6342021;28;20290;-53
2023/05/25 04:24:43;;;;;;;0.50;0.47;;;22.80;44.60;;;;;;6343012;28;19926;-49
2023/05/25 04:27:45;;;;;;;0.50;0.40;;;22.40;44.30;;;;;;6341658;28;20040;-52
2023/05/25 04:30:48;;;;;;;0.85;0.68;;;22.70;44.50;;;;;;6341014;28;20047;-51
2023/05/25 04:34:01;;;;;;;1.02;0.60;;;22.30;44.30;;;;;;6340211;28;20031;-52
2023/05/25 04:37:07;;;;;;;0.82;0.45;;;22.70;44.60;;;;;;6341637;28;20035;-52
2023/05/25 04:40:13;;;;;;;0.70;0.50;;;22.90;44.80;;;;;;6341896;28;20457;-53
2023/05/25 04:43:19;;;;;;;0.80;0.60;;;22.60;44.50;;;;;;6342574;28;20027;-53
2023/05/25 04:46:22;;;;;;;0.65;0.60;;;22.40;44.60;;;;;;6342060;28;20106;-50
2023/05/25 04:49:24;;;;;;;0.70;0.50;;;22.90;44.90;;;;;;6341492;28;20365;-50
2023/05/25 04:52:26;;;;;;;1.02;0.60;;;22.40;44.70;;;;;;6341193;28;20269;-51
2023/05/25 04:55:30;;;;;;;0.60;0.50;;;22.60;44.80;;;;;;6341648;28;20059;-49
2023/05/25 04:58:35;;;;;;;0.77;0.60;;;22.70;44.90;;;;;;6335262;28;20047;-53
2023/05/25 05:01:39;;;;;;;0.82;0.50;;;22.70;44.90;;;;;;6340809;28;20481;-53
2023/05/25 05:04:42;;;;;;;0.60;0.50;;;22.70;44.90;;;;;;6341407;28;20062;-53
2023/05/25 05:07:43;;;;;;;1.23;0.80;;;22.60;45.00;;;;;;6339414;28;20042;-53
2023/05/25 05:10:46;;;;;;;1.10;0.70;;;22.60;45.00;;;;;;6330890;28;20108;-47
2023/05/25 05:13:47;;;;;;;0.93;0.70;;;22.80;45.20;;;;;;6319526;28;20044;-53
2023/05/25 05:16:48;;;;;;;;;;;22.70;45.10;;;;;;6338530;28;20036;-51
2023/05/25 05:19:50;;;;;;;0.98;0.60;;;22.70;45.20;;;;;;6340376;28;19919;-51
2023/05/25 05:22:53;;;;;;;1.10;0.70;;;22.70;45.80;;;;;;6343486;28;20040;-47
2023/05/25 05:25:57;;;;;;;1.15;0.80;;;22.70;45.20;;;;;;6343145;28;20024;-48
2023/05/25 05:28:59;;;;;;;1.02;0.63;;;22.70;45.20;;;;;;6345027;28;20038;-47
2023/05/25 05:32:02;;;;;;;0.98;0.88;;;22.90;45.40;;;;;;6344483;28;20039;-44
2023/05/25 05:35:05;;;;;;;0.60;0.50;;;22.30;45.10;;;;;;6336754;28;20047;-48
2023/05/25 05:38:13;;;;;;;0.70;0.50;;;22.70;45.30;;;;;;6344987;28;20039;-46
2023/05/25 05:41:15;;;;;;;0.75;0.60;;;22.70;45.40;;;;;;6343786;28;20059;-46
2023/05/25 05:44:22;;;;;;;0.73;0.60;;;22.70;45.40;;;;;;6340380;28;20056;-48
2023/05/25 05:47:29;;;;;;;0.80;0.70;;;22.80;45.50;;;;;;6339978;28;20140;-46
2023/05/25 05:50:31;;;;;;;0.60;0.50;;;22.70;45.00;;;;;;6338836;28;20039;-45
2023/05/25 05:53:34;;;;;;;0.98;0.70;;;22.80;45.60;;;;;;6339371;28;20044;-48
2023/05/25 05:56:37;;;;;;;0.82;0.60;;;22.80;45.60;;;;;;6343193;28;20028;-45
2023/05/25 05:59:38;;;;;;;0.60;0.50;;;22.70;45.60;;;;;;6332616;28;20027;-48
2023/05/25 06:02:41;;;;;;;0.82;0.65;;;22.70;45.80;;;;;;6334876;28;20092;-45
2023/05/25 06:05:46;;;;;;;0.70;0.55;;;22.70;45.70;;;;;;6339366;28;20032;-47
2023/05/25 06:08:48;;;;;;;0.65;0.45;;;22.80;45.90;;;;;;6333616;28;20044;-47
2023/05/25 06:11:50;;;;;;;1.23;0.70;;;22.60;45.80;;;;;;6341159;28;20039;-46
2023/05/25 06:14:55;;;;;;;0.90;0.50;;;22.70;45.90;;;;;;6333264;28;20032;-46
2023/05/25 06:17:58;;;;;;;1.10;0.70;;;22.60;45.60;;;;;;6335802;28;20067;-45
2023/05/25 06:21:00;;;;;;;1.73;0.90;;;22.60;46.00;;;;;;6344126;28;20099;-46
2023/05/25 06:24:02;;;;;;;0.98;0.57;;;23.40;46.30;;;;;;6340462;28;20058;-44
2023/05/25 06:27:04;;;;;;;0.88;0.70;;;23.20;46.50;;;;;;6310485;28;20222;-45
2023/05/25 06:30:07;;;;;;;0.98;0.70;;;22.70;46.10;;;;;;6333343;28;20046;-43
2023/05/25 06:33:09;;;;;;;1.40;0.90;;;22.70;46.10;;;;;;6336218;28;20028;-46
2023/05/25 06:36:13;;;;;;;1.23;0.63;;;22.70;46.30;;;;;;6333883;28;20071;-44
2023/05/25 06:39:19;;;;;;;0.98;0.70;;;22.60;46.30;;;;;;6335696;28;20032;-47
2023/05/25 06:42:21;;;;;;;1.23;0.80;;;22.80;46.40;;;;;;6288634;28;20031;-46
2023/05/25 06:45:28;;;;;;;1.50;0.75;;;22.50;46.70;;;;;;6284426;28;20065;-44
2023/05/25 06:48:32;;;;;;;1.45;0.80;;;22.50;46.80;;;;;;6305858;28;20043;-43
2023/05/25 06:51:34;;;;;;;0.85;0.80;;;22.80;46.70;;;;;;6315469;28;20329;-44
2023/05/25 06:54:35;;;;;;;1.17;0.70;;;22.80;46.80;;;;;;6335175;28;20633;-49
2023/05/25 06:57:39;;;;;;;1.58;0.85;;;22.70;46.90;;;;;;6327842;28;20031;-44
2023/05/25 07:00:41;;;;;;;1.48;0.77;;;22.70;47.20;;;;;;6313665;28;20588;-52
2023/05/25 07:03:45;;;;;;;;;;;22.70;47.40;;;;;;6301830;28;20039;-50
2023/05/25 07:06:47;;;;;;;3.30;1.08;;;22.80;47.10;;;;;;6308585;28;19947;-50
2023/05/25 07:09:48;;;;;;;1.10;0.80;;;23.10;47.40;;;;;;6294449;28;20460;-50
2023/05/25 07:12:51;;;;;;;1.95;0.90;;;22.50;46.90;;;;;;6297591;28;20043;-44
2023/05/25 07:15:52;;;;;;;3.17;1.00;;;22.90;47.20;;;;;;6320477;28;20032;-50
2023/05/25 07:18:54;;;;;;;2.90;0.90;;;22.90;47.20;;;;;;6301782;28;20556;-47
2023/05/25 07:21:55;;;;;;;1.45;1.05;;;23.00;47.50;;;;;;6316067;28;20561;-45
2023/05/25 07:24:57;;;;;;;;;;;22.80;47.40;;;;;;6306726;28;20607;-50
2023/05/25 07:28:01;;;;;;;1.98;1.00;;;22.60;47.40;;;;;;6303964;28;19916;-46
2023/05/25 07:31:03;;;;;;;4.65;1.98;;;22.80;47.70;;;;;;6322043;28;20634;-43
2023/05/25 07:34:05;;;;;;;1.00;0.80;;;22.90;47.70;;;;;;6321764;28;20032;-60
2023/05/25 07:37:06;;;;;;;;;;;23.00;47.60;;;;;;6316684;28;20042;-47
2023/05/25 07:40:09;;;;;;;1.90;1.10;;;22.80;47.90;;;;;;6315087;28;20581;-47
2023/05/25 07:43:11;;;;;;;3.33;0.98;;;23.00;47.40;;;;;;6320700;28;20073;-49
2023/05/25 07:46:13;;;;;;;1.30;0.93;;;22.90;47.70;;;;;;6293393;28;20054;-46
2023/05/25 07:49:15;;;;;;;1.67;1.00;;;23.00;47.70;;;;;;6325912;28;20079;-48
2023/05/25 07:52:17;;;;;;;1.52;0.98;;;23.00;47.20;;;;;;6322551;28;20035;-45
2023/05/25 07:55:19;;;;;;;0.85;0.60;;;23.00;47.10;;;;;;6298352;28;20122;-46
2023/05/25 07:58:21;;;;;;;1.02;0.80;;;23.10;47.10;;;;;;6311134;28;20039;-48
2023/05/25 08:01:25;;;;;;;1.10;0.80;;;23.10;46.90;;;;;;6328692;28;20027;-43
2023/05/25 08:04:30;;;;;;;0.90;0.80;;;23.20;46.90;;;;;;6326667;28;20055;-44
2023/05/25 08:07:32;;;;;;;0.90;0.70;;;23.10;46.70;;;;;;6328743;28;20040;-44
2023/05/25 08:10:33;;;;;;;0.80;0.75;;;23.00;46.50;;;;;;6330082;28;20055;-46
2023/05/25 08:13:36;;;;;;;1.27;0.90;;;23.10;46.40;;;;;;6335847;28;20042;-44
2023/05/25 08:16:37;;;;;;;0.93;0.80;;;23.20;46.50;;;;;;6335852;28;20054;-42
2023/05/25 08:19:39;;;;;;;0.82;0.75;;;23.10;46.10;;;;;;6339421;28;20051;-44
2023/05/25 08:22:42;;;;;;;1.45;1.00;;;23.10;46.10;;;;;;6328452;28;20052;-43
2023/05/25 08:25:47;;;;;;;0.60;0.60;;;23.10;46.30;;;;;;6333104;28;20040;-45
2023/05/25 08:28:49;;;;;;;1.50;0.70;;;23.10;45.80;;;;;;6326499;28;20040;-46
2023/05/25 08:31:51;;;;;;;1.10;0.98;;;23.20;45.80;;;;;;6342176;28;20031;-47
2023/05/25 08:34:53;;;;;;;1.58;0.90;;;23.50;45.60;;;;;;6348427;28;20299;-43
2023/05/25 08:37:54;;;;;;;2.00;1.27;;;23.30;45.40;;;;;;6318127;28;20075;-41
2023/05/25 08:41:03;;;;;;;0.80;0.60;;;23.50;45.40;;;;;;6309412;28;20096;-42
2023/05/25 08:44:05;;;;;;;1.60;0.80;;;23.40;45.10;;;;;;6313123;28;20056;-43
2023/05/25 08:47:12;;;;;;;1.40;0.70;;;23.10;44.90;;;;;;6309379;28;20032;-42
2023/05/25 08:50:16;;;;;;;1.10;0.68;;;23.50;45.00;;;;;;6311220;28;20032;-41
2023/05/25 08:53:20;;;;;;;0.70;0.70;;;23.30;44.80;;;;;;6299487;28;20754;-42
2023/05/25 08:56:27;;;;;;;1.48;0.90;;;23.20;44.90;;;;;;6304614;28;20035;-41
2023/05/25 08:59:37;;;;;;;0.85;0.65;;;23.10;45.00;;;;;;6314472;28;20047;-44
2023/05/25 09:02:45;;;;;;;1.10;0.70;;;23.80;45.00;;;;;;6309827;28;20040;-50
2023/05/25 09:05:48;;;;;;;0.90;0.80;;;23.40;44.60;;;;;;6298383;28;20032;-51
2023/05/25 09:08:51;;;;;;;0.80;0.60;;;23.40;44.90;;;;;;6291500;28;20435;-49
2023/05/25 09:11:54;;;;;;;2.22;0.60;;;23.30;44.80;;;;;;6307735;28;20043;-51
2023/05/25 09:14:57;;;;;;;0.93;0.73;;;23.50;44.50;;;;;;6305747;28;20028;-48
2023/05/25 09:17:59;;;;;;;1.27;0.80;;;22.90;44.20;;;;;;6316180;28;20040;-48
2023/05/25 09:21:01;;;;;;;1.77;0.80;;;23.40;44.30;;;;;;6317280;28;20683;-51
2023/05/25 09:24:03;;;;;;;0.60;0.55;;;23.30;44.30;;;;;;6305521;28;20039;-49
2023/05/25 09:27:05;;;;;;;0.80;0.70;;;23.30;44.20;;;;;;6317957;28;20036;-52
2023/05/25 09:30:08;;;;;;;1.10;0.70;;;23.50;44.30;;;;;;6314298;28;20043;-49
2023/05/25 09:33:10;;;;;;;0.70;0.70;;;23.40;44.30;;;;;;6308763;28;20043;-49
2023/05/25 09:36:15;;;;;;;1.00;0.80;;;23.50;44.20;;;;;;6317751;28;20114;-50
2023/05/25 09:39:17;;;;;;;2.67;0.82;;;23.40;44.10;;;;;;6317668;28;20032;-52
2023/05/25 09:42:20;;;;;;;0.70;0.60;;;24.30;44.40;;;;;;6309973;28;20055;-49
2023/05/25 09:45:23;;;;;;;1.17;0.75;;;23.40;43.90;;;;;;6289838;28;20092;-50
2023/05/25 09:48:28;;;;;;;0.90;0.70;;;23.50;43.90;;;;;;6314999;28;20028;-50
2023/05/25 09:51:32;;;;;;;1.90;0.80;;;24.90;44.50;;;;;;6281115;28;20054;-50
2023/05/25 09:54:34;;;;;;;1.23;0.70;;;23.50;43.40;;;;;;6284194;28;20088;-49
2023/05/25 09:57:38;;;;;;;0.85;0.70;;;23.60;43.50;;;;;;6289586;28;20036;-50
2023/05/25 10:00:40;;;;;;;1.23;0.50;;;23.50;43.10;;;;;;6279092;28;20608;-53
2023/05/25 10:03:45;;;;;;;1.33;0.65;;;23.40;42.70;;;;;;6303634;28;20036;-53
2023/05/25 10:07:06;;;;;;;0.60;0.60;;;23.60;42.80;;;;;;6269816;28;20047;-53
2023/05/25 10:10:11;;;;;;;0.80;0.50;;;23.70;42.40;;;;;;6269974;28;20564;-50
2023/05/25 10:13:21;;;;;;;0.80;0.60;;;23.60;42.20;;;;;;6254663;28;20170;-52
2023/05/25 10:16:28;;;;;;;1.13;0.65;;;23.60;41.90;;;;;;6282130;28;20036;-51
2023/05/25 10:19:36;;;;;;;0.63;0.60;;;23.60;41.90;;;;;;6258450;28;20590;-54
2023/05/25 10:22:46;;;;;;;0.90;0.50;;;23.50;41.70;;;;;;6266976;28;20032;-53
2023/05/25 10:25:52;;;;;;;0.77;0.60;;;23.80;41.70;;;;;;6262747;28;20035;-56
2023/05/25 10:29:00;;;;;;;0.70;0.55;;;23.70;41.50;;;;;;6263609;28;20433;-50
2023/05/25 10:32:03;;;;;;;1.17;0.63;;;23.70;41.20;;;;;;6290539;28;20032;-49
2023/05/25 10:35:07;;;;;;;1.13;0.60;;;23.70;41.20;;;;;;6284348;28;20043;-51
2023/05/25 10:38:11;;;;;;;0.82;0.70;;;23.80;41.00;;;;;;6290734;28;20310;-50
2023/05/25 10:41:15;;;;;;;0.82;0.60;;;23.70;40.80;;;;;;6282858;28;20099;-52
2023/05/25 10:44:16;;;;;;;1.48;0.70;;;23.80;40.70;;;;;;6296437;28;20047;-50
2023/05/25 10:47:19;;;;;;;0.60;0.40;;;23.70;40.50;;;;;;6298519;28;20044;-52
2023/05/25 10:50:25;;;;;;;0.55;0.50;;;23.80;40.40;;;;;;6305834;28;20039;-51
2023/05/25 10:53:26;;;;;;;1.15;0.60;;;23.80;40.40;;;;;;6303980;28;20032;-51
2023/05/25 10:56:28;;;;;;;0.43;0.43;;;23.90;40.30;;;;;;6296315;28;20036;-50
2023/05/25 10:59:30;;;;;;;1.40;0.70;;;23.90;40.20;;;;;;6297671;28;20071;-53
2023/05/25 11:02:48;;;;;;;0.60;0.38;;;23.80;40.00;;;;;;6305412;28;20070;-53
2023/05/25 11:05:52;;;;;;;0.85;0.60;;;23.80;39.80;;;;;;6291075;28;20036;-51
2023/05/25 11:08:55;;;;;;;1.10;0.60;;;23.80;39.70;;;;;;6304926;28;20063;-50
2023/05/25 11:12:02;;;;;;;0.65;0.52;;;23.90;39.60;;;;;;6303003;28;20039;-48
2023/05/25 11:15:20;;;;;;;1.60;0.47;;;24.00;39.40;;;;;;6309541;28;20121;-51
2023/05/25 11:18:22;;;;;;;0.52;0.50;;;23.90;39.10;;;;;;6308257;28;20040;-51
2023/05/25 11:21:43;;;;;;;0.60;0.50;;;23.80;39.00;;;;;;6309042;28;20040;-52
2023/05/25 11:24:50;;;;;;;0.88;0.45;;;24.00;38.90;;;;;;6309029;28;20044;-52
2023/05/25 11:27:54;;;;;;;0.50;0.40;;;24.10;38.90;;;;;;6310641;28;20036;-52
2023/05/25 11:30:56;;;;;;;0.73;0.57;;;24.00;38.70;;;;;;6295841;28;20040;-51
2023/05/25 11:34:02;;;;;;;0.60;0.43;;;24.00;38.60;;;;;;6311740;28;20777;-50
2023/05/25 11:37:03;;;;;;;0.52;0.50;;;24.00;38.50;;;;;;6319289;28;20036;-52
2023/05/25 11:40:07;;;;;;;0.80;0.40;;;24.00;38.40;;;;;;6311405;28;20036;-52
2023/05/25 11:43:10;;;;;;;0.60;0.40;;;24.00;38.40;;;;;;6297173;28;20024;-49
2023/05/25 11:46:13;;;;;;;0.82;0.45;;;24.10;38.40;;;;;;6285926;28;20787;-51
2023/05/25 11:49:20;;;;;;;0.60;0.43;;;24.50;38.60;;;;;;6268313;28;20165;-52
2023/05/25 11:52:22;;;;;;;0.57;0.43;;;24.10;38.30;;;;;;6289244;28;20036;-50
2023/05/25 11:55:23;;;;;;;0.55;0.40;;;24.10;38.20;;;;;;6291378;28;20032;-52
2023/05/25 11:58:31;;;;;;;0.82;0.45;;;24.10;38.10;;;;;;6293284;28;20028;-51
2023/05/25 12:01:35;;;;;;;0.80;0.43;;;24.20;38.00;;;;;;6273202;28;20059;-53
2023/05/25 12:04:39;;;;;;;0.63;0.40;;;24.20;38.00;;;;;;6264824;28;20156;-54
2023/05/25 12:07:42;;;;;;;1.15;0.40;;;24.20;37.70;;;;;;6273058;28;20844;-54
2023/05/25 12:10:51;;;;;;;1.38;0.52;;;24.30;37.60;;;;;;6279614;28;20662;-53
2023/05/25 12:13:54;;;;;;;1.30;0.50;;;24.40;37.70;;;;;;6244385;28;20546;-49
2023/05/25 12:16:56;;;;;;;0.50;0.40;;;24.20;37.50;;;;;;6238566;28;20188;-52
2023/05/25 12:19:59;;;;;;;0.45;0.45;;;24.40;37.50;;;;;;6303367;28;20048;-50
2023/05/25 12:23:01;;;;;;;1.17;0.57;;;24.40;37.40;;;;;;6305471;28;20032;-50
2023/05/25 12:26:09;;;;;;;0.50;0.40;;;24.50;37.40;;;;;;6298930;28;20245;-50
2023/05/25 12:29:10;;;;;;;0.47;0.35;;;24.90;37.50;;;;;;6309253;28;20036;-49
2023/05/25 12:32:12;;;;;;;0.82;0.50;;;24.70;37.40;;;;;;6251605;28;20094;-58
2023/05/25 12:35:14;;;;;;;0.50;0.40;;;24.50;37.30;;;;;;6236969;28;20549;-55
2023/05/25 12:38:17;;;;;;;0.55;0.35;;;24.50;37.10;;;;;;6253407;28;20311;-57
2023/05/25 12:41:19;;;;;;;0.40;0.40;;;23.90;36.60;;;;;;6258328;28;20724;-55
2023/05/25 12:44:23;;;;;;;0.80;0.50;;;24.60;37.00;;;;;;6288805;28;20055;-53
2023/05/25 12:47:27;;;;;;;0.60;0.40;;;24.50;36.70;;;;;;6291429;28;20084;-56
2023/05/25 12:50:29;;;;;;;0.60;0.43;;;24.60;36.70;;;;;;6277047;28;20033;-56
2023/05/25 12:53:32;;;;;;;0.68;0.50;;;24.70;36.60;;;;;;6275324;28;20094;-56
2023/05/25 12:56:52;;;;;;;0.70;0.60;;;24.70;36.60;;;;;;6278826;28;20029;-55
2023/05/25 12:59:55;;;;;;;0.75;0.65;;;24.60;36.50;;;;;;6284376;28;20799;-55
2023/05/25 13:02:58;;;;;;;0.52;0.52;;;24.60;36.40;;;;;;6280328;28;20434;-55
2023/05/25 13:06:01;;;;;;;0.57;0.50;;;24.70;36.40;;;;;;6288238;28;20643;-54
2023/05/25 13:09:03;;;;;;;1.23;0.60;;;24.50;36.10;;;;;;6285835;28;20134;-56
2023/05/25 13:12:05;;;;;;;0.80;0.60;;;24.70;36.20;;;;;;6248687;28;20040;-56
2023/05/25 13:15:10;;;;;;;0.50;0.40;;;24.70;36.30;;;;;;6279344;28;20722;-55
2023/05/25 13:18:12;;;;;;;0.98;0.50;;;24.60;36.30;;;;;;6287996;28;20738;-52
2023/05/25 13:21:14;;;;;;;0.43;0.40;;;24.60;36.50;;;;;;6282379;28;20807;-55
2023/05/25 13:24:16;;;;;;;0.60;0.40;;;24.70;36.60;;;;;;6285709;28;20589;-55
2023/05/25 13:27:20;;;;;;;0.50;0.40;;;24.50;36.60;;;;;;6282085;28;20036;-56
2023/05/25 13:30:26;;;;;;;0.60;0.50;;;24.50;36.60;;;;;;6283159;28;20050;-55
2023/05/25 13:33:29;;;;;;;0.68;0.30;;;24.50;36.70;;;;;;6288791;28;20032;-54
2023/05/25 13:36:33;;;;;;;0.50;0.40;;;24.50;36.80;;;;;;6277557;28;20040;-54
2023/05/25 13:39:37;;;;;;;0.50;0.50;;;24.50;36.90;;;;;;6280585;28;20149;-53
2023/05/25 13:42:38;;;;;;;0.70;0.43;;;24.50;37.10;;;;;;6282870;28;20040;-52
2023/05/25 13:45:40;;;;;;;0.55;0.45;;;24.50;37.20;;;;;;6281751;28;20044;-54
2023/05/25 13:48:46;;;;;;;0.55;0.50;;;24.30;38.00;;;;;;6276680;28;20693;-52
2023/05/25 13:51:48;;;;;;;0.88;0.82;;;24.50;37.20;;;;;;6286519;28;20431;-51
2023/05/25 13:54:51;;;;;;;0.60;0.40;;;24.30;37.30;;;;;;6278347;28;20036;-54
2023/05/25 13:57:53;;;;;;;0.45;0.40;;;24.40;37.20;;;;;;6251754;28;20834;-54
2023/05/25 14:00:55;;;;;;;2.60;0.60;;;24.50;37.30;;;;;;6250277;28;20093;-53
2023/05/25 14:03:58;;;;;;;2.50;0.50;;;23.30;36.70;;;;;;6270251;28;20034;-54
2023/05/25 14:07:01;;;;;;;1.33;0.50;;;24.40;37.20;;;;;;6277138;28;20036;-54
2023/05/25 14:10:03;;;;;;;0.60;0.50;;;24.30;37.30;;;;;;6248758;28;20036;-51
2023/05/25 14:13:05;;;;;;;0.32;0.30;;;24.50;37.20;;;;;;6273568;28;20643;-53
2023/05/25 14:16:09;;;;;;;0.57;0.45;;;24.40;37.40;;;;;;6257916;28;20277;-55
2023/05/25 14:19:11;;;;;;;0.60;0.50;;;24.30;37.10;;;;;;6266706;28;20701;-52
2023/05/25 14:22:13;;;;;;;0.68;0.68;;;24.30;36.90;;;;;;6270858;28;20032;-54
2023/05/25 14:25:15;;;;;;;0.55;0.43;;;24.40;37.10;;;;;;6257529;28;20093;-55
2023/05/25 14:28:17;;;;;;;0.60;0.50;;;24.50;37.70;;;;;;6279716;28;20108;-54
2023/05/25 14:31:19;;;;;;;0.65;0.47;;;24.50;37.10;;;;;;6250929;28;20039;-52
2023/05/25 14:34:21;;;;;;;0.70;0.50;;;24.50;37.20;;;;;;6219071;28;20837;-55
2023/05/25 14:37:23;;;;;;;0.80;0.60;;;24.50;37.30;;;;;;6205338;28;20043;-52
2023/05/25 14:40:24;;;;;;;0.73;0.50;;;24.50;37.20;;;;;;6212395;28;20040;-56
2023/05/25 14:43:26;;;;;;;0.57;0.50;;;24.30;36.90;;;;;;6248178;28;20029;-54
2023/05/25 14:46:27;;;;;;;0.73;0.50;;;24.40;36.90;;;;;;6250089;28;20028;-53
2023/05/25 14:49:29;;;;;;;0.40;0.40;;;24.10;36.70;;;;;;6264925;28;20039;-55
2023/05/25 14:52:31;;;;;;;0.65;0.47;;;24.40;36.80;;;;;;6275033;28;20066;-52
2023/05/25 14:55:32;;;;;;;1.15;0.70;;;24.30;37.00;;;;;;6282202;28;20044;-53
2023/05/25 14:58:34;;;;;;;0.52;0.40;;;24.20;36.70;;;;;;6284516;28;20040;-52
2023/05/25 15:01:36;;;;;;;0.70;0.60;;;24.20;36.70;;;;;;6283308;28;20712;-52
2023/05/25 15:04:37;;;;;;;0.60;0.50;;;24.50;37.50;;;;;;6272296;28;20675;-53
2023/05/25 15:07:40;;;;;;;0.90;0.75;;;24.50;36.90;;;;;;6279864;28;20580;-51
2023/05/25 15:10:41;;;;;;;0.63;0.55;;;24.40;37.00;;;;;;6275835;28;20043;-53
2023/05/25 15:13:43;;;;;;;1.00;0.60;;;24.50;37.20;;;;;;6281375;28;20105;-50
2023/05/25 15:16:47;;;;;;;0.63;0.45;;;24.40;37.20;;;;;;6282803;28;20089;-53
2023/05/25 15:19:49;;;;;;;0.50;0.50;;;24.50;37.30;;;;;;6286358;28;20040;-53
2023/05/25 15:22:53;;;;;;;1.25;0.80;;;24.20;37.20;;;;;;6278732;28;20028;-50
2023/05/25 15:25:56;;;;;;;1.00;0.63;;;24.60;37.80;;;;;;6253222;28;20028;-53
2023/05/25 15:28:57;;;;;;;0.43;0.40;;;24.40;37.70;;;;;;6252397;28;20830;-51
2023/05/25 15:31:59;;;;;;;3.13;0.70;;;24.40;37.50;;;;;;6273682;28;20044;-53
2023/05/25 15:35:01;;;;;;;0.60;0.50;;;24.40;37.40;;;;;;6278768;28;20760;-52
2023/05/25 15:38:03;;;;;;;0.70;0.63;;;24.40;37.50;;;;;;6264360;28;20040;-53
2023/05/25 15:41:10;;;;;;;0.77;0.52;;;24.30;37.40;;;;;;6260093;28;20032;-52
2023/05/25 15:44:11;;;;;;;0.82;0.60;;;24.40;37.80;;;;;;6247792;28;20028;-53
2023/05/25 15:47:13;;;;;;;0.60;0.47;;;24.50;37.60;;;;;;6248203;28;20043;-52
2023/05/25 15:50:14;;;;;;;0.50;0.40;;;23.20;37.20;;;;;;6251629;28;20695;-53
2023/05/25 15:53:17;;;;;;;1.33;0.40;;;24.50;37.80;;;;;;6253921;28;20025;-52
2023/05/25 15:56:21;;;;;;;1.20;0.50;;;24.50;37.70;;;;;;6272217;28;20714;-55